Hlavní strana
METAR-TAF:

METAR-TAF

Letiště :

Paris, Tennessee, Spojené státy americké

zeměpisná šířka: 36-20-18N, zeměpisná délka: 088-22-58W, výška: 177 m

Aktuální stav počasí

Zpráva byla vytvořena před 21 hodinami a 20 minutami, v 00:15 UTC
Jihojihovýchodní vítr 5 kt
Teplota 26°C
Vlhkost vzduchu 79%
Tlak 1011 hPa
Viditelnost: 16.1 km
Polojasno ve výšce 3400 ft
Zataženo ve výšce 4200 ft

METAR: KPHT 210015Z AUTO 16005KT 10SM SCT034 OVC042 26/22 A2984 RMK A01

Čas: 16:35 (21:35 UTC)


TAF: chybějící

Stav a předpovědi počasí z více než 4 000 letišť (zprávy METAR a TAF).

Červené a žluté tečky na mapě představují dostupné meteorologické stanice.

Když kurzor umístíte na tečku, zobrazí se název stanice.

Pak kliknutím zobrazíte stav a předpověď počasí.

Chcete-li změnit mapu, kliknutím na zelené tlačítko se znaménkem +mapu přiblížíte, kliknutím na zelené tlačítko se znaménkem – mapu oddálíte a kliknutím na zelené šipky přejdete na sousední mapy.


METAR-TAF: